South Brook, Canada
Current Conditions -  °F | °C
As of 12:00 AM on Wednesday 26 Nov 2014 (Local Time) from CYDF Reporting Station
Broken Clouds Broken Clouds  
Wind Chill: 36°   Ceiling: 20000
Heat Index: 43°   Visibility: 15mi
Dew Point: 34°   Wind: 14mph
Humidity: 70%   Direction: 210°SSW
Pressure: 29.62"   Gusts: NA
Location:  49.02°N, 57.62°W
Report Text: CYDF 260300Z 21012KT 15SM BKN200 06/01 A2962 RMK CI6 SLP029
Loading
Personal Weather Stations






























Interactive Weather Map New forecast layout! Learn more

10-Day Weather Forecast

Advertisements
Track Severe Weather on mobile